CheckWX is a tool to help pilots better visualize weather data.  It is not intended as a substitute for an official pre-flight weather briefing.

04:57:40 UTC

CYXZ METAR
Wawa Airport
Wawa, Canada
Current

5 hours ago

CYXZ 240000Z 27003KT 220V330 15SM BKN250 15/10 A3003 RMK CI6 LAST OBS/NEXT 241100UTC SLP175 DENSITY ALT 1100FT
Observed
Jul-24 @ 00:00 UTC
Wind
  • 270° at 3 KTS
Visibility
15 SM
Flight Rules
VFR
Cloud Levels
  • Broken at 25,000' AGL
Temperature
15°C / 59°F
Dewpoint
10°C / 50°F
Humidity
72%
Altimeter
30.03" Hg
Pressure
1016.92 hPa
Previous

6 hours ago

CYXZ 232300Z 27004KT 230V310 15SM FEW050 SCT250 17/10 A3003 RMK CU1CI4 CU TR SLP175 DENSITY ALT 1300FT
Observed
Jul-23 @ 23:00 UTC
Wind
  • 270° at 4 KTS
Visibility
15 SM
Flight Rules
VFR
Cloud Levels
  • Few at 5,000' AGL
  • Scattered at 25,000' AGL
Temperature
17°C / 63°F
Dewpoint
10°C / 50°F
Humidity
64%
Altimeter
30.03" Hg
Pressure
1016.92 hPa
Previous

7 hours ago

CYXZ 232200Z 26004KT 190V310 15SM FEW050 18/11 A3003 RMK CU1 SLP174 DENSITY ALT 1500FT
Observed
Jul-23 @ 22:00 UTC
Wind
  • 260° at 4 KTS
Visibility
15 SM
Flight Rules
VFR
Cloud Levels
  • Few at 5,000' AGL
Temperature
18°C / 64°F
Dewpoint
11°C / 52°F
Humidity
64%
Altimeter
30.03" Hg
Pressure
1016.92 hPa